createdAt,value
2023-04-17T00:01:29.521Z,6.70
2023-04-17T00:04:01.488Z,6.80
2023-04-17T00:06:33.805Z,6.80
2023-04-17T00:09:06.090Z,6.80
2023-04-17T00:11:38.207Z,6.90
2023-04-17T00:14:09.958Z,6.90
2023-04-17T00:16:41.757Z,6.90
2023-04-17T00:19:13.691Z,6.80
2023-04-17T00:21:45.767Z,6.80
2023-04-17T00:24:17.458Z,6.80
2023-04-17T00:26:49.274Z,6.80
2023-04-17T00:29:20.997Z,6.70
2023-04-17T00:31:53.932Z,6.70
2023-04-17T00:34:25.764Z,6.60
2023-04-17T00:36:59.124Z,6.60
2023-04-17T00:39:31.228Z,6.60
2023-04-17T00:42:03.133Z,6.60
2023-04-17T00:44:34.865Z,6.50
2023-04-17T00:47:06.888Z,6.50
2023-04-17T00:49:38.935Z,6.50
2023-04-17T00:52:10.957Z,6.50
2023-04-17T00:54:43.365Z,6.50
2023-04-17T00:57:15.628Z,6.50
2023-04-17T00:59:48.337Z,6.40
2023-04-17T01:02:20.337Z,6.30
2023-04-17T01:04:52.089Z,6.30
2023-04-17T01:07:24.209Z,6.30
2023-04-17T01:09:55.972Z,6.20
2023-04-17T01:12:27.875Z,6.20
2023-04-17T01:14:59.965Z,6.20
2023-04-17T01:17:33.613Z,6.10
2023-04-17T01:20:14.688Z,6.10
2023-04-17T01:22:49.497Z,6.10
2023-04-17T01:25:21.461Z,6.10
2023-04-17T01:27:53.826Z,6.10
2023-04-17T01:30:26.303Z,6.00
2023-04-17T01:33:06.489Z,6.00
2023-04-17T01:35:38.348Z,6.00
2023-04-17T01:38:10.233Z,6.00
2023-04-17T01:40:41.938Z,5.90
2023-04-17T01:43:14.166Z,5.80
2023-04-17T01:45:45.887Z,5.80
2023-04-17T01:48:17.628Z,5.80
2023-04-17T01:50:49.371Z,5.70
2023-04-17T01:53:21.760Z,5.60
2023-04-17T01:55:53.500Z,5.50
2023-04-17T01:58:25.315Z,5.50
2023-04-17T02:00:57.405Z,5.40
2023-04-17T02:03:29.315Z,5.50
2023-04-17T02:06:01.251Z,5.50
2023-04-17T02:08:33.673Z,5.50
2023-04-17T02:11:06.445Z,5.50
2023-04-17T02:13:38.212Z,5.50
2023-04-17T02:16:12.357Z,5.50
2023-04-17T02:18:46.357Z,5.40
2023-04-17T02:21:18.302Z,5.40
2023-04-17T02:23:50.114Z,5.40
2023-04-17T02:26:21.830Z,5.30
2023-04-17T02:28:53.597Z,5.30
2023-04-17T02:31:25.703Z,5.30
2023-04-17T02:33:57.458Z,5.20
2023-04-17T02:36:29.322Z,5.20
2023-04-17T02:39:01.355Z,5.10
2023-04-17T02:41:33.417Z,5.10
2023-04-17T02:44:09.361Z,5.10
2023-04-17T02:46:41.484Z,5.10
2023-04-17T02:49:14.484Z,5.20
2023-04-17T02:51:46.260Z,5.20
2023-04-17T02:54:18.141Z,5.20
2023-04-17T02:56:50.945Z,5.20
2023-04-17T02:59:22.667Z,5.20
2023-04-17T03:01:54.505Z,5.20
2023-04-17T03:04:28.027Z,5.20
2023-04-17T03:07:00.104Z,5.20
2023-04-17T03:09:33.630Z,5.10
2023-04-17T03:12:05.868Z,5.10
2023-04-17T03:14:37.682Z,5.00
2023-04-17T03:17:10.532Z,5.00
2023-04-17T03:19:42.436Z,4.90
2023-04-17T03:22:14.142Z,4.80
2023-04-17T03:24:46.069Z,4.80
2023-04-17T03:27:24.224Z,4.80
2023-04-17T03:29:57.724Z,4.70
2023-04-17T03:32:31.104Z,4.70
2023-04-17T03:35:02.911Z,4.60
2023-04-17T03:37:34.673Z,6.70
2023-04-17T03:40:07.844Z,4.60
2023-04-17T03:42:39.675Z,4.60
2023-04-17T03:45:11.643Z,4.60
2023-04-17T03:47:43.750Z,3.60
2023-04-17T03:50:15.845Z,4.40
2023-04-17T03:52:53.813Z,4.50
2023-04-17T03:55:26.476Z,4.50
2023-04-17T03:57:58.585Z,4.50
2023-04-17T04:00:34.069Z,4.50
2023-04-17T04:03:12.973Z,4.50
2023-04-17T04:05:46.801Z,4.50
2023-04-17T04:08:18.513Z,4.50
2023-04-17T04:10:54.400Z,4.50
2023-04-17T04:13:33.861Z,4.50
2023-04-17T04:16:07.442Z,4.50
2023-04-17T04:18:43.012Z,4.50
2023-04-17T04:21:14.819Z,4.50
2023-04-17T04:23:49.729Z,4.50
2023-04-17T04:26:24.452Z,4.60
2023-04-17T04:29:00.541Z,2.20
2023-04-17T04:31:51.588Z,4.60
2023-04-17T04:34:29.916Z,4.70
2023-04-17T04:37:02.225Z,4.70
2023-04-17T04:40:01.958Z,4.80
2023-04-17T04:42:34.248Z,4.80
2023-04-17T04:45:19.281Z,4.90
2023-04-17T04:47:51.304Z,4.90
2023-04-17T04:50:23.275Z,5.00
2023-04-17T04:52:55.146Z,5.10
2023-04-17T04:55:41.367Z,5.20
2023-04-17T04:58:14.317Z,5.30
2023-04-17T05:00:46.917Z,5.40
2023-04-17T05:03:25.496Z,5.40
2023-04-17T05:05:58.770Z,5.50
2023-04-17T05:08:35.867Z,5.70
2023-04-17T05:11:15.548Z,5.80
2023-04-17T05:13:47.924Z,6.00
2023-04-17T05:16:28.244Z,6.00
2023-04-17T05:19:00.830Z,6.10
2023-04-17T05:21:57.793Z,6.10
2023-04-17T05:24:29.736Z,6.20
2023-04-17T05:27:02.189Z,6.20
2023-04-17T05:29:34.013Z,6.20
2023-04-17T05:32:06.051Z,6.30
2023-04-17T05:35:00.340Z,6.40
2023-04-17T05:37:33.440Z,6.50
2023-04-17T05:40:07.075Z,6.60
2023-04-17T05:42:39.305Z,6.70
2023-04-17T05:45:15.141Z,6.80
2023-04-17T05:47:46.917Z,6.90
2023-04-17T05:50:19.748Z,6.90
2023-04-17T05:52:51.605Z,7.00
2023-04-17T05:55:23.971Z,7.10
2023-04-17T05:58:00.272Z,7.10
2023-04-17T06:00:34.400Z,7.10
2023-04-17T06:03:10.728Z,7.20
2023-04-17T06:05:46.917Z,7.50
2023-04-17T06:08:18.877Z,7.60
2023-04-17T06:10:52.143Z,7.80
2023-04-17T06:13:24.561Z,7.90
2023-04-17T06:15:56.981Z,7.90
2023-04-17T06:18:28.709Z,8.00
2023-04-17T06:21:01.218Z,8.10
2023-04-17T06:23:33.627Z,8.00
2023-04-17T06:26:05.670Z,8.10
2023-04-17T06:28:37.393Z,8.00
2023-04-17T06:31:10.116Z,8.00
2023-04-17T06:33:41.851Z,8.00
2023-04-17T06:36:13.779Z,8.10
2023-04-17T06:38:51.262Z,8.30
2023-04-17T06:41:25.382Z,8.40
2023-04-17T06:43:58.709Z,8.60
2023-04-17T06:46:41.678Z,8.80
2023-04-17T06:49:13.634Z,8.90
2023-04-17T06:51:47.276Z,8.90
2023-04-17T06:54:19.083Z,9.10
2023-04-17T06:56:51.133Z,9.40
2023-04-17T06:59:22.929Z,9.70
2023-04-17T07:01:54.874Z,10.00
2023-04-17T07:04:27.284Z,10.10
2023-04-17T07:06:59.713Z,10.20
2023-04-17T07:09:31.433Z,10.30
2023-04-17T07:12:03.831Z,9.20
2023-04-17T07:14:35.606Z,10.30
2023-04-17T07:17:07.607Z,10.30
2023-04-17T07:19:39.341Z,10.30
2023-04-17T07:22:11.134Z,10.40
2023-04-17T07:24:42.867Z,10.50
2023-04-17T07:27:14.620Z,10.70
2023-04-17T07:29:52.756Z,11.00
2023-04-17T07:32:24.756Z,11.20
2023-04-17T07:34:56.653Z,11.30
2023-04-17T07:37:28.439Z,11.50
2023-04-17T07:40:00.190Z,11.60
2023-04-17T07:42:31.902Z,11.60
2023-04-17T07:45:04.897Z,11.50
2023-04-17T07:47:37.109Z,11.50
2023-04-17T07:50:09.165Z,11.60
2023-04-17T07:52:40.866Z,11.50
2023-04-17T07:55:12.738Z,11.80
2023-04-17T07:57:46.948Z,12.00
2023-04-17T08:00:19.428Z,11.80
2023-04-17T08:02:51.274Z,11.60
2023-04-17T08:05:23.909Z,11.50
2023-04-17T08:07:56.001Z,11.50
2023-04-17T08:10:28.500Z,11.60
2023-04-17T08:13:01.492Z,11.80
2023-04-17T08:15:33.967Z,12.10
2023-04-17T08:18:05.898Z,12.20
2023-04-17T08:20:37.903Z,12.20
2023-04-17T08:23:09.689Z,12.30
2023-04-17T08:25:41.432Z,12.20
2023-04-17T08:28:13.142Z,12.20
2023-04-17T08:30:44.897Z,12.40
2023-04-17T08:33:18.103Z,12.60
2023-04-17T08:35:49.875Z,12.70
2023-04-17T08:38:21.598Z,12.80
2023-04-17T08:40:57.757Z,12.90
2023-04-17T08:43:29.834Z,13.10
2023-04-17T08:46:02.872Z,13.10
2023-04-17T08:48:34.859Z,13.30
2023-04-17T08:51:06.730Z,13.30
2023-04-17T08:53:38.508Z,13.20
2023-04-17T08:56:10.260Z,13.50
2023-04-17T08:58:41.975Z,13.90
2023-04-17T09:01:19.828Z,14.30
2023-04-17T09:03:52.262Z,14.50
2023-04-17T09:06:24.256Z,14.80
2023-04-17T09:08:58.296Z,15.10
2023-04-17T09:11:30.535Z,15.50
2023-04-17T09:14:02.266Z,15.80
2023-04-17T09:16:35.150Z,15.80
2023-04-17T09:19:07.831Z,15.80
2023-04-17T09:21:39.578Z,15.80
2023-04-17T09:24:11.502Z,15.90
2023-04-17T09:26:43.201Z,16.10
2023-04-17T09:29:15.499Z,16.20
2023-04-17T09:31:48.315Z,16.10
2023-04-17T09:34:20.728Z,16.00
2023-04-17T09:36:54.368Z,15.80
2023-04-17T09:39:26.187Z,15.80
2023-04-17T09:42:04.101Z,15.80
2023-04-17T09:44:37.991Z,16.00
2023-04-17T09:47:11.364Z,15.90
2023-04-17T09:49:55.784Z,15.50
2023-04-17T09:52:28.640Z,14.80
2023-04-17T09:55:06.847Z,14.10
2023-04-17T09:57:39.241Z,13.60
2023-04-17T10:00:14.770Z,13.20
2023-04-17T10:02:49.611Z,12.90
2023-04-17T10:05:23.423Z,12.70
2023-04-17T10:07:56.200Z,12.50
2023-04-17T10:10:31.334Z,12.40
2023-04-17T10:13:06.958Z,12.40
2023-04-17T10:15:42.513Z,12.20
2023-04-17T10:18:23.067Z,12.00
2023-04-17T10:20:55.559Z,11.70
2023-04-17T10:23:31.148Z,11.30
2023-04-17T10:26:25.690Z,11.10
2023-04-17T10:28:57.953Z,11.00
2023-04-17T10:32:07.692Z,11.10
2023-04-17T10:34:42.474Z,11.20
2023-04-17T10:37:15.957Z,11.30
2023-04-17T10:39:54.922Z,11.40
2023-04-17T10:42:29.714Z,11.40
2023-04-17T10:45:04.849Z,11.50
2023-04-17T10:47:37.812Z,11.60
2023-04-17T10:50:10.084Z,11.90
2023-04-17T10:52:43.026Z,12.20
2023-04-17T10:55:23.078Z,12.30
2023-04-17T10:58:12.295Z,12.30
2023-04-17T11:00:51.876Z,12.40
2023-04-17T11:03:24.087Z,12.50
2023-04-17T11:05:56.052Z,12.40
2023-04-17T11:08:27.837Z,12.40
2023-04-17T11:10:59.630Z,12.40
2023-04-17T11:13:34.745Z,12.50
2023-04-17T11:16:07.437Z,12.50
2023-04-17T11:18:39.251Z,12.40
2023-04-17T11:21:14.260Z,12.50
2023-04-17T11:23:55.166Z,12.40
2023-04-17T11:26:27.092Z,12.40
2023-04-17T11:28:59.618Z,12.20
2023-04-17T11:31:31.520Z,12.00
2023-04-17T11:34:08.042Z,11.90
2023-04-17T11:36:39.940Z,11.70
2023-04-17T11:39:14.988Z,11.60
2023-04-17T11:41:47.105Z,11.60
2023-04-17T11:44:20.982Z,11.60
2023-04-17T11:46:58.563Z,11.60
2023-04-17T11:49:38.864Z,11.60
2023-04-17T11:52:10.990Z,11.60
2023-04-17T11:54:42.696Z,11.50
2023-04-17T11:57:14.942Z,11.50
2023-04-17T11:59:46.676Z,13.00
2023-04-17T12:02:31.902Z,11.50
2023-04-17T12:05:18.227Z,11.60
2023-04-17T12:08:04.320Z,11.70
2023-04-17T12:10:45.307Z,11.70
2023-04-17T12:13:17.033Z,11.80
2023-04-17T12:15:48.808Z,11.90
2023-04-17T12:18:20.664Z,12.00
2023-04-17T12:20:52.645Z,12.00
2023-04-17T12:23:24.394Z,12.00
2023-04-17T12:25:56.133Z,12.20
2023-04-17T12:28:27.874Z,12.30
2023-04-17T12:30:59.660Z,12.30
2023-04-17T12:33:32.263Z,12.30
2023-04-17T12:36:06.389Z,12.40
2023-04-17T12:38:38.199Z,12.80
2023-04-17T12:41:10.661Z,13.10
2023-04-17T12:43:42.390Z,13.10
2023-04-17T12:46:14.170Z,13.00
2023-04-17T12:48:46.362Z,14.50
2023-04-17T12:51:18.093Z,13.00
2023-04-17T12:53:52.872Z,13.20
2023-04-17T12:56:24.601Z,13.30
2023-04-17T12:58:56.317Z,13.40
2023-04-17T13:01:28.097Z,13.50
2023-04-17T13:04:00.063Z,13.60
2023-04-17T13:06:32.442Z,13.50
2023-04-17T13:09:04.758Z,13.40
2023-04-17T13:11:36.465Z,13.30
2023-04-17T13:14:09.027Z,13.10
2023-04-17T13:16:41.779Z,12.90
2023-04-17T13:19:13.710Z,12.80
2023-04-17T13:21:45.610Z,12.80
2023-04-17T13:24:17.617Z,12.90
2023-04-17T13:26:49.322Z,12.80
2023-04-17T13:29:21.132Z,12.90
2023-04-17T13:31:52.987Z,12.90
2023-04-17T13:34:24.817Z,12.80
2023-04-17T13:36:57.058Z,12.70
2023-04-17T13:39:28.818Z,12.60
2023-04-17T13:42:00.557Z,12.50
2023-04-17T13:44:32.508Z,12.50
2023-04-17T13:47:04.384Z,12.60
2023-04-17T13:49:36.134Z,12.60
2023-04-17T13:52:08.237Z,12.60
2023-04-17T13:54:41.101Z,12.50
2023-04-17T13:57:14.664Z,12.60
2023-04-17T13:59:46.409Z,12.60
2023-04-17T14:02:18.301Z,12.50
2023-04-17T14:04:50.414Z,12.40
2023-04-17T14:07:22.269Z,12.50
2023-04-17T14:09:54.002Z,12.60
2023-04-17T14:12:26.252Z,12.90
2023-04-17T14:14:58.380Z,13.10
2023-04-17T14:17:30.248Z,13.10
2023-04-17T14:20:02.036Z,13.10
2023-04-17T14:22:33.798Z,13.10
2023-04-17T14:25:05.950Z,13.00
2023-04-17T14:27:37.689Z,13.00
2023-04-17T14:30:09.684Z,13.10
2023-04-17T14:32:41.444Z,13.20
2023-04-17T14:35:13.389Z,13.40
2023-04-17T14:37:45.246Z,13.50
2023-04-17T14:40:17.024Z,13.50
2023-04-17T14:42:54.127Z,13.50
2023-04-17T14:45:26.589Z,13.30
2023-04-17T14:47:58.762Z,13.30
2023-04-17T14:50:30.607Z,13.40
2023-04-17T14:53:03.491Z,13.40
2023-04-17T14:55:36.823Z,13.50
2023-04-17T14:58:08.836Z,13.50
2023-04-17T15:00:40.910Z,13.60
2023-04-17T15:03:12.741Z,13.70
2023-04-17T15:05:46.182Z,13.60
2023-04-17T15:08:18.794Z,13.60
2023-04-17T15:10:51.737Z,13.40
2023-04-17T15:13:23.550Z,13.40
2023-04-17T15:15:55.725Z,13.30
2023-04-17T15:18:27.526Z,13.40
2023-04-17T15:20:59.278Z,13.60
2023-04-17T15:23:31.336Z,13.90
2023-04-17T15:26:03.184Z,14.10
2023-04-17T15:28:35.544Z,14.20
2023-04-17T15:31:07.912Z,14.20
2023-04-17T15:33:39.639Z,14.30
2023-04-17T15:36:11.376Z,14.30
2023-04-17T15:38:44.023Z,14.40
2023-04-17T15:41:15.741Z,14.60
2023-04-17T15:43:47.430Z,14.60
2023-04-17T15:46:19.309Z,14.40
2023-04-17T15:49:04.883Z,14.30
2023-04-17T15:51:41.573Z,14.10
2023-04-17T15:54:13.568Z,14.10
2023-04-17T15:56:45.257Z,13.90
2023-04-17T15:59:17.243Z,13.90
2023-04-17T16:01:49.140Z,13.90
2023-04-17T16:04:21.045Z,13.70
2023-04-17T16:06:53.433Z,13.70
2023-04-17T16:09:25.314Z,13.60
2023-04-17T16:11:57.845Z,13.40
2023-04-17T16:14:29.563Z,13.30
2023-04-17T16:17:01.362Z,13.10
2023-04-17T16:19:33.269Z,12.90
2023-04-17T16:22:05.014Z,12.80
2023-04-17T16:24:36.759Z,12.80
2023-04-17T16:27:08.530Z,12.80
2023-04-17T16:29:40.266Z,12.80
2023-04-17T16:32:14.129Z,12.70
2023-04-17T16:34:46.427Z,12.70
2023-04-17T16:37:18.175Z,12.60
2023-04-17T16:39:50.829Z,12.60
2023-04-17T16:42:22.648Z,12.60
2023-04-17T16:44:54.336Z,12.60
2023-04-17T16:47:28.294Z,12.60
2023-04-17T16:50:00.181Z,12.60
2023-04-17T16:52:31.872Z,12.60
2023-04-17T16:55:03.710Z,12.50
2023-04-17T16:57:40.511Z,12.30
2023-04-17T17:00:12.808Z,12.10
2023-04-17T17:02:44.684Z,11.80
2023-04-17T17:05:16.447Z,11.80
2023-04-17T17:07:48.588Z,11.70
2023-04-17T17:10:20.316Z,11.60
2023-04-17T17:12:52.080Z,11.60
2023-04-17T17:15:23.934Z,11.60
2023-04-17T17:17:55.802Z,11.50
2023-04-17T17:20:27.572Z,11.40
2023-04-17T17:22:59.330Z,11.30
2023-04-17T17:25:31.074Z,11.20
2023-04-17T17:28:02.803Z,11.10
2023-04-17T17:30:34.609Z,11.10
2023-04-17T17:33:06.377Z,11.00
2023-04-17T17:35:38.206Z,10.90
2023-04-17T17:38:11.410Z,10.60
2023-04-17T17:40:43.901Z,10.50
2023-04-17T17:43:15.707Z,10.50
2023-04-17T17:45:47.757Z,10.40
2023-04-17T17:48:20.517Z,10.40
2023-04-17T17:50:54.602Z,10.30
2023-04-17T17:53:27.219Z,10.30
2023-04-17T17:55:59.046Z,10.30
2023-04-17T17:58:30.743Z,10.30
2023-04-17T18:01:02.621Z,10.20
2023-04-17T18:03:35.460Z,10.10
2023-04-17T18:06:07.256Z,10.10
2023-04-17T18:08:39.186Z,10.00
2023-04-17T18:11:13.580Z,9.90
2023-04-17T18:13:45.281Z,9.90
2023-04-17T18:16:17.435Z,9.80
2023-04-17T18:18:49.215Z,9.80
2023-04-17T18:21:20.988Z,9.80
2023-04-17T18:23:52.989Z,9.70
2023-04-17T18:26:24.736Z,9.70
2023-04-17T18:28:56.463Z,9.70
2023-04-17T18:31:28.295Z,9.70
2023-04-17T18:34:02.480Z,9.70
2023-04-17T18:36:34.171Z,9.60
2023-04-17T18:39:05.865Z,9.60
2023-04-17T18:41:37.562Z,9.50
2023-04-17T18:44:09.282Z,9.50
2023-04-17T18:46:41.144Z,9.40
2023-04-17T18:49:12.853Z,9.40
2023-04-17T18:51:47.907Z,9.40
2023-04-17T18:54:19.792Z,9.30
2023-04-17T18:56:51.591Z,9.30
2023-04-17T18:59:25.962Z,9.30
2023-04-17T19:01:57.791Z,9.30
2023-04-17T19:04:30.447Z,9.30
2023-04-17T19:07:02.745Z,9.30
2023-04-17T19:09:34.465Z,9.30
2023-04-17T19:12:06.216Z,9.30
2023-04-17T19:14:37.905Z,9.30
2023-04-17T19:17:09.637Z,9.30
2023-04-17T19:19:41.374Z,9.30
2023-04-17T19:22:15.882Z,9.40
2023-04-17T19:24:50.050Z,9.30
2023-04-17T19:27:23.781Z,9.30
2023-04-17T19:29:56.916Z,9.30
2023-04-17T19:32:30.435Z,9.30
2023-04-17T19:35:03.488Z,9.30
2023-04-17T19:37:35.344Z,9.30
2023-04-17T19:40:21.314Z,9.30
2023-04-17T19:43:01.049Z,9.20
2023-04-17T19:45:34.388Z,9.20
2023-04-17T19:48:06.459Z,9.20
2023-04-17T19:50:38.190Z,9.10
2023-04-17T19:53:09.888Z,9.10
2023-04-17T19:55:42.342Z,9.10
2023-04-17T19:58:14.020Z,9.00
2023-04-17T20:00:45.927Z,9.00
2023-04-17T20:03:17.752Z,9.00
2023-04-17T20:05:50.032Z,8.90
2023-04-17T20:08:21.845Z,8.90
2023-04-17T20:10:53.744Z,8.90
2023-04-17T20:13:26.165Z,8.90
2023-04-17T20:15:57.890Z,8.80
2023-04-17T20:18:29.667Z,8.80
2023-04-17T20:21:01.516Z,8.80
2023-04-17T20:23:33.334Z,8.80
2023-04-17T20:26:05.111Z,8.80
2023-04-17T20:28:36.805Z,8.80
2023-04-17T20:31:08.581Z,8.70
2023-04-17T20:33:40.293Z,8.70
2023-04-17T20:36:12.481Z,8.70
2023-04-17T20:38:44.836Z,8.70
2023-04-17T20:41:16.559Z,8.60
2023-04-17T20:43:59.004Z,8.60
2023-04-17T20:46:30.829Z,8.50
2023-04-17T20:49:02.561Z,8.50
2023-04-17T20:51:34.268Z,8.50
2023-04-17T20:54:06.001Z,8.50
2023-04-17T20:56:37.770Z,8.40
2023-04-17T20:59:09.484Z,8.50
2023-04-17T21:01:41.304Z,8.50
2023-04-17T21:04:13.215Z,8.50
2023-04-17T21:06:45.101Z,8.50
2023-04-17T21:09:16.846Z,8.50
2023-04-17T21:11:49.556Z,8.50
2023-04-17T21:14:21.276Z,8.50
2023-04-17T21:16:54.865Z,8.50
2023-04-17T21:19:27.759Z,8.50
2023-04-17T21:21:59.479Z,8.50
2023-04-17T21:24:31.241Z,8.50
2023-04-17T21:27:03.542Z,8.50
2023-04-17T21:29:35.336Z,8.50
2023-04-17T21:32:07.129Z,8.60
2023-04-17T21:34:39.097Z,8.60
2023-04-17T21:37:10.845Z,8.60
2023-04-17T21:39:42.542Z,8.60
2023-04-17T21:42:14.445Z,8.60
2023-04-17T21:44:46.166Z,8.60
2023-04-17T21:47:19.470Z,8.60
2023-04-17T21:49:51.140Z,8.50
2023-04-17T21:52:22.847Z,8.50
2023-04-17T21:54:54.615Z,8.50
2023-04-17T21:57:26.349Z,8.50
2023-04-17T21:59:58.137Z,8.40
2023-04-17T22:02:29.964Z,8.40
2023-04-17T22:05:01.700Z,8.50
2023-04-17T22:07:40.710Z,8.50
2023-04-17T22:10:19.419Z,8.40
2023-04-17T22:12:51.221Z,8.50
2023-04-17T22:15:23.066Z,8.50
2023-04-17T22:17:54.829Z,8.40
2023-04-17T22:20:26.722Z,8.40
2023-04-17T22:22:58.583Z,8.40
2023-04-17T22:25:30.281Z,8.30
2023-04-17T22:28:01.988Z,8.30
2023-04-17T22:30:33.686Z,8.30
2023-04-17T22:33:05.407Z,8.30
2023-04-17T22:35:37.176Z,8.30
2023-04-17T22:38:08.869Z,8.20
2023-04-17T22:40:41.301Z,8.20
2023-04-17T22:43:13.008Z,8.10
2023-04-17T22:45:44.775Z,8.10
2023-04-17T22:48:17.711Z,8.10
2023-04-17T22:50:50.248Z,8.00
2023-04-17T22:53:22.990Z,8.00
2023-04-17T22:56:02.159Z,8.00
2023-04-17T22:58:34.241Z,8.00
2023-04-17T23:01:06.108Z,8.00
2023-04-17T23:03:37.861Z,8.00
2023-04-17T23:06:11.155Z,8.00
2023-04-17T23:08:42.820Z,8.00
2023-04-17T23:11:14.528Z,7.90
2023-04-17T23:13:46.195Z,7.90
2023-04-17T23:16:18.003Z,7.90
2023-04-17T23:18:49.792Z,7.80
2023-04-17T23:21:21.529Z,7.80
2023-04-17T23:23:53.303Z,7.80
2023-04-17T23:26:25.819Z,7.80
2023-04-17T23:28:57.729Z,7.80
2023-04-17T23:31:29.435Z,7.80
2023-04-17T23:34:01.189Z,7.80
2023-04-17T23:36:32.973Z,7.80
2023-04-17T23:39:05.686Z,7.80
2023-04-17T23:41:37.398Z,7.80
2023-04-17T23:44:09.716Z,7.70
2023-04-17T23:46:41.482Z,7.70
2023-04-17T23:49:13.298Z,7.70
2023-04-17T23:51:45.093Z,7.70
2023-04-17T23:54:17.333Z,7.70
2023-04-17T23:56:49.110Z,7.70
2023-04-17T23:59:20.891Z,7.70
